Time;durP1;ratioP1;P1;durP2;ratioP2;P2;SDS_P1;SDS_P2;PMS_P1;PMS_P2;Temp;Humidity;BMP_temperature;BMP_pressure;BME280_temperature;BME280_humidity;BME280_pressure;Samples;Min_cycle;Max_cycle;Signal;HPM_P1;HPM_P2
2021/03/04 00:01:46;;;;;;;0.25;0.13;;;;;;;21.19;45.29;101555.69;5032024;28;20041;-67
2021/03/04 00:04:12;;;;;;;0.35;0.00;;;;;;;21.21;45.17;101553.63;5032135;28;20021;-70
2021/03/04 00:06:37;;;;;;;0.10;0.10;;;;;;;21.29;44.64;101555.50;5032208;28;20041;-69
2021/03/04 00:09:03;;;;;;;0.00;0.00;;;;;;;21.29;44.30;101560.97;5031908;28;20073;-69
2021/03/04 00:11:28;;;;;;;0.30;0.10;;;;;;;21.28;44.40;101554.66;5032115;28;20032;-69
2021/03/04 00:13:54;;;;;;;0.35;0.00;;;;;;;21.24;44.26;101553.31;5031906;28;20279;-70
2021/03/04 00:16:19;;;;;;;0.10;0.10;;;;;;;21.27;44.20;101555.69;5031689;28;20029;-69
2021/03/04 00:18:44;;;;;;;0.10;0.05;;;;;;;21.25;44.64;101560.47;5033576;28;20449;-69
2021/03/04 00:21:09;;;;;;;0.10;0.10;;;;;;;21.26;44.34;101567.66;5035575;28;20021;-68
2021/03/04 00:23:35;;;;;;;0.10;0.00;;;;;;;21.28;44.13;101571.06;5035808;28;20029;-69
2021/03/04 00:26:00;;;;;;;0.05;0.00;;;;;;;21.28;44.57;101582.00;5035466;28;20029;-69
2021/03/04 00:28:25;;;;;;;0.00;0.00;;;;;;;21.28;44.28;101570.22;5035240;28;20402;-69
2021/03/04 00:30:50;;;;;;;0.20;0.00;;;;;;;21.28;44.35;101582.00;5035161;28;20025;-69
2021/03/04 00:33:16;;;;;;;0.10;0.00;;;;;;;21.30;44.67;101574.47;5035403;28;20498;-70
2021/03/04 00:35:41;;;;;;;0.47;0.20;;;;;;;21.28;44.83;101562.88;5035396;28;20025;-69
2021/03/04 00:38:06;;;;;;;0.52;0.10;;;;;;;21.34;45.33;101565.97;5035248;28;20638;-70
2021/03/04 00:40:32;;;;;;;0.20;0.10;;;;;;;21.32;45.11;101572.41;5035443;28;20071;-68
2021/03/04 00:42:57;;;;;;;0.98;0.00;;;;;;;21.35;45.28;101575.88;5034970;28;20428;-69
2021/03/04 00:45:24;;;;;;;0.50;0.00;;;;;;;21.32;44.98;101566.94;5035365;28;20033;-69
2021/03/04 00:47:49;;;;;;;0.00;0.00;;;;;;;21.36;45.74;101572.09;5035018;28;20116;-69
2021/03/04 00:50:17;;;;;;;0.00;0.00;;;;;;;21.36;45.42;101574.84;5035155;28;20104;-70
2021/03/04 00:52:42;;;;;;;0.17;0.00;;;;;;;21.38;45.71;101575.50;5035110;28;20023;-69
2021/03/04 00:55:08;;;;;;;0.28;0.10;;;;;;;21.35;46.20;101576.72;5035002;28;20372;-69
2021/03/04 00:57:33;;;;;;;0.00;0.00;;;;;;;21.30;46.61;101569.00;5033838;28;20059;-69
2021/03/04 00:59:58;;;;;;;1.17;0.10;;;;;;;21.26;46.74;101578.59;5034282;28;20476;-69
2021/03/04 01:02:24;;;;;;;0.20;0.15;;;;;;;21.20;47.53;101579.25;5034372;28;20033;-69
2021/03/04 01:04:49;;;;;;;0.00;0.00;;;;;;;21.23;46.92;101567.97;5034689;28;20022;-69
2021/03/04 01:07:14;;;;;;;0.10;0.00;;;;;;;21.18;45.75;101575.84;5034917;28;20053;-70
2021/03/04 01:09:39;;;;;;;0.15;0.00;;;;;;;21.13;46.28;101571.91;5034822;28;20465;-69
2021/03/04 01:12:05;;;;;;;0.45;0.10;;;;;;;21.06;45.60;101570.91;5034498;28;20025;-69
2021/03/04 01:14:30;;;;;;;0.10;0.00;;;;;;;21.04;45.59;101571.06;5034815;28;20026;-70
2021/03/04 01:16:59;;;;;;;0.20;0.10;;;;;;;20.98;45.00;101571.75;5034456;28;20029;-69
2021/03/04 01:19:25;;;;;;;0.10;0.05;;;;;;;20.98;45.61;101580.78;5034748;28;20025;-69
2021/03/04 01:21:50;;;;;;;0.40;0.20;;;;;;;20.94;46.12;101562.19;5034480;28;20116;-69
2021/03/04 01:24:16;;;;;;;0.20;0.00;;;;;;;20.96;45.55;101582.00;5034516;28;20033;-69
2021/03/04 01:26:41;;;;;;;0.00;0.00;;;;;;;20.91;44.91;101562.53;5034483;28;20109;-70
2021/03/04 01:29:06;;;;;;;1.10;0.13;;;;;;;20.88;45.56;101568.34;5033997;28;20471;-70
2021/03/04 01:31:32;;;;;;;0.30;0.05;;;;;;;20.83;45.54;101571.59;5033682;28;20025;-70
2021/03/04 01:33:57;;;;;;;0.20;0.10;;;;;;;20.90;45.76;101555.34;5034216;28;20385;-70
2021/03/04 01:36:22;;;;;;;0.10;0.00;;;;;;;20.85;45.60;101564.06;5034291;28;20025;-70
2021/03/04 01:38:48;;;;;;;0.00;0.00;;;;;;;20.88;44.75;101565.59;5034164;28;20492;-68
2021/03/04 01:41:13;;;;;;;0.00;0.00;;;;;;;20.85;45.00;101563.22;5033037;28;20401;-70
2021/03/04 01:43:38;;;;;;;0.52;0.10;;;;;;;20.86;45.19;101559.47;5034272;28;20043;-69
2021/03/04 01:46:04;;;;;;;0.00;0.00;;;;;;;20.87;44.68;101569.38;5033873;28;20025;-70
2021/03/04 01:48:29;;;;;;;0.10;0.05;;;;;;;20.84;44.93;101562.38;5034244;28;20029;-69
2021/03/04 01:50:55;;;;;;;0.75;0.10;;;;;;;20.87;44.30;101566.63;5033828;28;20415;-70
2021/03/04 01:53:21;;;;;;;0.40;0.10;;;;;;;20.82;44.69;101558.06;5034108;28;20024;-70
2021/03/04 01:55:47;;;;;;;0.32;0.10;;;;;;;20.79;44.30;101570.19;5033891;28;20044;-70
2021/03/04 01:58:13;;;;;;;0.20;0.00;;;;;;;20.78;44.10;101556.72;5033588;28;20029;-70
2021/03/04 02:00:38;;;;;;;0.10;0.03;;;;;;;20.83;43.98;101570.75;5033692;28;20387;-69
2021/03/04 02:03:04;;;;;;;0.15;0.00;;;;;;;20.78;45.42;101564.91;5033352;28;20117;-69
2021/03/04 02:05:29;;;;;;;0.05;0.03;;;;;;;20.75;44.97;101557.06;5033935;28;20029;-70
2021/03/04 02:08:18;;;;;;;0.32;0.00;;;;;;;20.69;44.99;101561.34;5033264;28;20112;-70
2021/03/04 02:10:52;;;;;;;0.08;0.08;;;;;;;20.70;45.50;101550.22;5033634;28;20030;-69
2021/03/04 02:13:33;;;;;;;0.10;0.00;;;;;;;20.69;44.70;101548.53;5033783;28;20494;-70
2021/03/04 02:16:06;;;;;;;0.00;0.00;;;;;;;20.68;44.16;101544.09;5032193;28;20029;-69
2021/03/04 02:18:36;;;;;;;0.00;0.00;;;;;;;20.70;44.69;101541.19;5033697;28;20022;-70
2021/03/04 02:21:23;;;;;;;0.30;0.00;;;;;;;20.71;44.42;101534.69;5033317;28;20018;-70
2021/03/04 02:23:51;;;;;;;0.40;0.10;;;;;;;20.69;44.80;101529.41;5033334;28;20529;-69
2021/03/04 02:26:53;;;;;;;0.40;0.00;;;;;;;20.69;44.83;101537.59;5033447;28;20112;-69
2021/03/04 02:29:22;;;;;;;0.52;0.00;;;;;;;20.76;44.54;101534.16;5033037;28;20079;-69
2021/03/04 02:31:50;;;;;;;0.57;0.10;;;;;;;20.78;44.68;101529.38;5032667;28;20049;-69
2021/03/04 02:34:16;;;;;;;0.00;0.00;;;;;;;20.76;45.27;101513.16;5033289;28;20066;-69
2021/03/04 02:36:44;;;;;;;0.03;0.03;;;;;;;20.78;45.51;101496.59;5033209;28;20022;-69
2021/03/04 02:39:10;;;;;;;0.30;0.10;;;;;;;20.81;45.15;101490.78;5033090;28;20037;-69
2021/03/04 02:41:38;;;;;;;0.10;0.10;;;;;;;20.89;45.35;101498.97;5033043;28;20041;-69
2021/03/04 02:44:06;;;;;;;0.10;0.00;;;;;;;20.89;45.40;101515.38;5032919;28;20469;-68
2021/03/04 02:46:35;;;;;;;0.40;0.10;;;;;;;20.85;45.57;101519.50;5033087;28;20037;-68
2021/03/04 02:49:01;;;;;;;0.10;0.00;;;;;;;20.80;45.40;101510.94;5032777;28;20030;-69
2021/03/04 02:51:28;;;;;;;0.00;0.00;;;;;;;20.82;44.96;101503.41;5032635;28;20033;-69
2021/03/04 02:53:55;;;;;;;0.03;0.00;;;;;;;20.83;45.48;101505.16;5031526;28;20048;-69
2021/03/04 02:56:23;;;;;;;0.13;0.00;;;;;;;20.86;45.31;101499.34;5031639;28;20028;-68
2021/03/04 02:58:50;;;;;;;1.20;0.00;;;;;;;20.90;45.53;101514.34;5025353;28;20459;-69
2021/03/04 03:01:15;;;;;;;0.10;0.00;;;;;;;20.91;45.50;101519.66;5013237;28;20030;-69
2021/03/04 03:03:42;;;;;;;0.00;0.00;;;;;;;20.87;45.55;101517.44;5013084;28;20021;-69
2021/03/04 03:06:07;;;;;;;0.20;0.10;;;;;;;20.88;45.49;101513.69;5012919;28;20044;-69
2021/03/04 03:08:35;;;;;;;0.10;0.00;;;;;;;20.89;45.57;101518.13;5013176;28;20030;-70
2021/03/04 03:11:01;;;;;;;0.10;0.00;;;;;;;20.90;45.97;101514.34;5012659;28;20137;-69
2021/03/04 03:13:26;;;;;;;0.30;0.00;;;;;;;20.92;45.86;101515.03;5013088;28;20068;-69
2021/03/04 03:15:52;;;;;;;0.10;0.00;;;;;;;20.93;45.39;101516.75;5011465;28;20032;-69
2021/03/04 03:18:17;;;;;;;0.20;0.00;;;;;;;20.97;45.77;101518.94;5012910;28;20409;-69
2021/03/04 03:20:42;;;;;;;0.10;0.00;;;;;;;20.89;46.14;101531.78;5011591;28;20022;-70
2021/03/04 03:23:07;;;;;;;0.10;0.00;;;;;;;20.95;47.05;101525.63;5030843;28;20435;-69
2021/03/04 03:25:33;;;;;;;0.20;0.00;;;;;;;20.91;48.16;101519.66;5032493;28;20028;-69
2021/03/04 03:27:58;;;;;;;0.22;0.10;;;;;;;20.93;48.57;101522.22;5032367;28;20052;-69
2021/03/04 03:30:26;;;;;;;0.22;0.00;;;;;;;20.90;47.89;101517.94;5032511;28;20056;-69
2021/03/04 03:33:06;;;;;;;0.13;0.00;;;;;;;20.89;46.66;101532.63;5032218;28;20083;-69
2021/03/04 03:35:33;;;;;;;0.03;0.00;;;;;;;20.73;47.87;101528.03;5032559;28;20021;-68
2021/03/04 03:38:01;;;;;;;0.00;0.00;;;;;;;20.65;46.79;101536.19;5031961;28;20027;-69
2021/03/04 03:40:28;;;;;;;0.00;0.00;;;;;;;20.60;47.42;101524.94;5032417;28;20057;-69
2021/03/04 03:42:56;;;;;;;0.10;0.00;;;;;;;20.64;48.24;101523.56;5031972;28;20404;-69
2021/03/04 03:45:33;;;;;;;0.00;0.00;;;;;;;20.65;47.10;101527.16;5032438;28;20461;-70
2021/03/04 03:48:00;;;;;;;0.05;0.00;;;;;;;20.60;46.97;101519.47;5032143;28;20116;-70
2021/03/04 03:50:26;;;;;;;0.17;0.10;;;;;;;20.63;46.60;101524.59;5032297;28;20481;-69
2021/03/04 03:52:52;;;;;;;0.03;0.00;;;;;;;20.62;46.06;101528.34;5031532;28;20045;-69
2021/03/04 03:55:18;;;;;;;0.10;0.00;;;;;;;20.66;45.79;101537.94;5036386;28;20104;-69
2021/03/04 03:57:45;;;;;;;0.00;0.00;;;;;;;20.58;45.95;101527.00;5036160;28;20441;-69
2021/03/04 04:00:11;;;;;;;0.05;0.05;;;;;;;20.60;45.95;101537.75;5034741;28;20059;-69
2021/03/04 04:02:38;;;;;;;0.10;0.00;;;;;;;20.64;45.82;101528.19;5034884;28;20029;-70
2021/03/04 04:05:04;;;;;;;0.30;0.00;;;;;;;20.65;45.85;101529.88;5035919;28;20095;-69
2021/03/04 04:07:30;;;;;;;0.05;0.00;;;;;;;20.62;45.11;101536.56;5034793;28;20460;-69
2021/03/04 04:09:56;;;;;;;0.55;0.20;;;;;;;20.64;45.42;101537.22;5035897;28;20384;-69
2021/03/04 04:12:22;;;;;;;0.00;0.00;;;;;;;20.66;45.27;101535.22;5035940;28;20039;-70
2021/03/04 04:14:48;;;;;;;0.10;0.00;;;;;;;20.63;45.30;101527.31;5035347;28;20403;-68
2021/03/04 04:17:13;;;;;;;0.00;0.00;;;;;;;20.66;44.68;101529.75;5035242;28;20031;-69
2021/03/04 04:19:39;;;;;;;0.22;0.08;;;;;;;20.60;45.61;101527.66;5036175;28;20052;-68
2021/03/04 04:22:05;;;;;;;0.35;0.00;;;;;;;20.50;45.34;101527.00;5034325;28;20014;-69
2021/03/04 04:24:30;;;;;;;0.25;0.25;;;;;;;20.56;45.31;101530.91;5035863;28;20036;-70
2021/03/04 04:26:56;;;;;;;0.00;0.00;;;;;;;20.52;46.19;101529.56;5035524;28;20029;-68
2021/03/04 04:29:21;;;;;;;0.15;0.03;;;;;;;20.51;45.36;101539.63;5035704;28;20033;-69
2021/03/04 04:31:46;;;;;;;0.10;0.08;;;;;;;20.42;45.78;101530.56;5035425;28;20025;-68
2021/03/04 04:34:12;;;;;;;0.00;0.00;;;;;;;20.50;45.45;101531.63;5035482;28;20033;-69
2021/03/04 04:36:37;;;;;;;0.00;0.00;;;;;;;20.48;46.01;101534.47;5035552;28;20064;-70
2021/03/04 04:39:02;;;;;;;0.25;0.13;;;;;;;20.46;46.13;101536.53;5035551;28;20404;-69
2021/03/04 04:41:28;;;;;;;0.15;0.08;;;;;;;20.48;46.12;101526.28;5035334;28;20040;-69
2021/03/04 04:43:53;;;;;;;0.30;0.10;;;;;;;20.48;46.15;101536.34;5034908;28;20021;-69
2021/03/04 04:46:18;;;;;;;0.10;0.00;;;;;;;20.51;46.22;101534.16;5035124;28;20487;-69
2021/03/04 04:48:44;;;;;;;0.00;0.00;;;;;;;20.48;46.21;101530.91;5035273;28;20025;-69
2021/03/04 04:51:13;;;;;;;0.00;0.00;;;;;;;20.46;45.88;101539.25;5035063;28;20481;-70
2021/03/04 04:53:40;;;;;;;0.10;0.00;;;;;;;20.48;45.46;101544.56;5035220;28;20104;-70
2021/03/04 04:56:05;;;;;;;0.00;0.00;;;;;;;20.49;45.43;101552.59;5034962;28;20025;-70
2021/03/04 04:58:31;;;;;;;0.30;0.10;;;;;;;20.48;46.26;101539.94;5035138;28;20460;-69
2021/03/04 05:00:56;;;;;;;0.00;0.00;;;;;;;20.57;46.49;101544.41;5034497;28;20025;-70
2021/03/04 05:03:21;;;;;;;0.60;0.10;;;;;;;20.57;46.23;101549.88;5035064;28;20031;-68
2021/03/04 05:05:46;;;;;;;1.75;0.03;;;;;;;20.62;46.00;101552.94;5033683;28;20030;-69
2021/03/04 05:08:12;;;;;;;0.38;0.00;;;;;;;20.69;45.68;101523.94;5034880;28;20026;-71
2021/03/04 05:10:37;;;;;;;0.30;0.10;;;;;;;20.77;46.23;101544.06;5033640;28;20029;-70
2021/03/04 05:13:02;;;;;;;0.00;0.00;;;;;;;20.89;46.14;101545.44;5034655;28;20033;-70
2021/03/04 05:15:27;;;;;;;0.60;0.08;;;;;;;20.95;46.28;101536.56;5033122;28;20147;-69
2021/03/04 05:17:53;;;;;;;0.35;0.10;;;;;;;20.99;46.11;101532.44;5033264;28;20457;-70
2021/03/04 05:20:18;;;;;;;0.10;0.00;;;;;;;21.04;46.50;101535.53;5034682;28;20031;-70
2021/03/04 05:22:43;;;;;;;0.00;0.00;;;;;;;21.06;46.65;101538.94;5034634;28;20068;-68
2021/03/04 05:25:09;;;;;;;0.10;0.10;;;;;;;21.08;46.64;101531.41;5034399;28;20037;-69
2021/03/04 05:27:35;;;;;;;0.05;0.00;;;;;;;21.10;47.02;101533.97;5034625;28;20071;-70
2021/03/04 05:30:00;;;;;;;0.15;0.00;;;;;;;21.11;46.99;101536.53;5034369;28;20072;-70
2021/03/04 05:32:25;;;;;;;0.10;0.10;;;;;;;21.11;47.16;101536.53;5034566;28;20468;-70
2021/03/04 05:34:50;;;;;;;0.00;0.00;;;;;;;21.15;47.34;101542.50;5034435;28;20075;-69
2021/03/04 05:37:16;;;;;;;0.28;0.10;;;;;;;21.18;48.29;101537.56;5034527;28;20460;-69
2021/03/04 05:39:41;;;;;;;0.43;0.08;;;;;;;21.18;48.45;101528.50;5034334;28;20025;-70
2021/03/04 05:42:08;;;;;;;0.10;0.00;;;;;;;21.26;48.29;101540.31;5033990;28;20049;-69
2021/03/04 05:44:35;;;;;;;0.00;0.00;;;;;;;21.31;48.11;101537.91;5034090;28;20033;-71
2021/03/04 05:47:03;;;;;;;0.00;0.00;;;;;;;21.34;47.98;101541.34;5034206;28;20051;-70
2021/03/04 05:49:29;;;;;;;0.55;0.00;;;;;;;21.31;49.55;101548.84;5034258;28;20022;-70
2021/03/04 05:51:56;;;;;;;0.00;0.00;;;;;;;21.30;49.63;101547.13;5033766;28;20361;-70
2021/03/04 05:54:22;;;;;;;0.20;0.00;;;;;;;21.32;50.30;101544.22;5034010;28;20029;-69
2021/03/04 05:56:48;;;;;;;0.28;0.00;;;;;;;21.24;50.87;101542.38;5033894;28;20030;-69
2021/03/04 05:59:14;;;;;;;0.15;0.00;;;;;;;21.26;50.46;101545.78;5033935;28;20037;-69
2021/03/04 06:01:41;;;;;;;0.00;0.00;;;;;;;21.17;49.56;101549.53;5032622;28;20013;-69
2021/03/04 06:04:07;;;;;;;0.15;0.00;;;;;;;21.13;48.75;101542.69;5033956;28;20305;-70
2021/03/04 06:06:32;;;;;;;0.00;0.00;;;;;;;21.13;48.29;101550.88;5033902;28;20112;-70
2021/03/04 06:08:57;;;;;;;0.15;0.13;;;;;;;21.14;48.64;101546.28;5033498;28;20108;-70
2021/03/04 06:11:23;;;;;;;0.52;0.00;;;;;;;21.10;48.22;101533.97;5033718;28;20021;-70
2021/03/04 06:13:48;;;;;;;0.00;0.00;;;;;;;21.11;48.53;101550.22;5033083;28;20029;-70
2021/03/04 06:16:14;;;;;;;0.10;0.00;;;;;;;21.08;47.96;101547.81;5032906;28;20030;-69
2021/03/04 06:18:41;;;;;;;0.00;0.00;;;;;;;21.10;47.74;101545.78;5033270;28;20230;-70
2021/03/04 06:21:26;;;;;;;0.05;0.00;;;;;;;21.07;47.70;101546.13;5033417;28;20245;-70
2021/03/04 06:23:53;;;;;;;0.20;0.10;;;;;;;21.12;47.36;101554.66;5033323;28;20346;-69
2021/03/04 06:26:36;;;;;;;0.00;0.00;;;;;;;21.12;47.70;101565.59;5032118;28;20025;-71
2021/03/04 06:29:31;;;;;;;0.08;0.08;;;;;;;21.16;47.29;101564.22;5033419;28;20029;-71
2021/03/04 06:32:03;;;;;;;0.10;0.10;;;;;;;21.15;46.98;101562.50;4971778;28;20034;-69
2021/03/04 06:34:28;;;;;;;0.25;0.00;;;;;;;21.18;47.27;101578.59;4972194;28;20150;-70
2021/03/04 06:36:59;;;;;;;0.05;0.00;;;;;;;21.19;47.29;101566.63;4971826;28;20472;-69
2021/03/04 06:39:26;;;;;;;0.43;0.10;;;;;;;21.17;47.14;101579.63;4972155;28;20023;-69
2021/03/04 06:41:59;;;;;;;0.00;0.00;;;;;;;21.17;47.55;101567.81;4971726;28;20042;-70
2021/03/04 06:44:24;;;;;;;0.50;0.00;;;;;;;21.19;47.45;101565.78;4971503;28;20065;-68
2021/03/04 06:46:50;;;;;;;0.20;0.00;;;;;;;21.15;46.85;101559.75;4971644;28;20051;-69
2021/03/04 06:49:15;;;;;;;0.00;0.00;;;;;;;21.18;46.61;101581.31;4971930;28;20038;-70
2021/03/04 06:51:44;;;;;;;0.20;0.00;;;;;;;21.18;47.16;101581.31;4971831;28;20051;-70
2021/03/04 06:54:21;;;;;;;0.00;0.00;;;;;;;21.20;46.46;101595.69;4971715;28;20027;-70
2021/03/04 06:56:46;;;;;;;0.00;0.00;;;;;;;21.19;47.61;101587.66;4971752;28;20031;-69
2021/03/04 06:59:11;;;;;;;0.10;0.00;;;;;;;21.16;47.68;101588.81;4966815;28;20038;-68
2021/03/04 07:01:39;;;;;;;0.00;0.00;;;;;;;21.19;47.17;101599.44;4969887;28;20074;-69
2021/03/04 07:04:12;;;;;;;0.20;0.00;;;;;;;21.15;47.61;101581.63;4970586;28;20026;-68
2021/03/04 07:06:39;;;;;;;0.00;0.00;;;;;;;21.10;47.41;101596.88;4977894;28;20027;-68
2021/03/04 07:09:05;;;;;;;0.00;0.00;;;;;;;21.12;47.67;101587.47;5008897;28;20037;-69
2021/03/04 07:11:34;;;;;;;0.10;0.00;;;;;;;21.14;48.28;101588.13;5012240;28;20024;-68
2021/03/04 07:14:00;;;;;;;0.20;0.10;;;;;;;21.17;48.63;101595.16;5019703;28;20021;-69
2021/03/04 07:16:45;;;;;;;0.00;0.00;;;;;;;21.16;47.89;101594.28;5026421;28;20079;-69
2021/03/04 07:19:20;;;;;;;;;;;;;;;21.17;47.95;101593.28;5013001;28;20377;-68
2021/03/04 07:21:48;;;;;;;0.40;0.10;;;;;;;21.20;48.30;101594.81;5016145;28;19917;-70
2021/03/04 07:24:13;;;;;;;0.05;0.00;;;;;;;21.20;48.57;101594.81;5022444;28;20029;-68
2021/03/04 07:26:39;;;;;;;0.10;0.00;;;;;;;21.29;47.97;101605.59;5021137;28;20029;-69
2021/03/04 07:29:09;;;;;;;0.00;0.00;;;;;;;21.30;48.53;101606.44;5019904;28;20438;-69
2021/03/04 07:31:37;;;;;;;0.10;0.00;;;;;;;21.34;47.62;101591.44;5027363;28;20026;-69
2021/03/04 07:34:03;;;;;;;0.03;0.00;;;;;;;21.36;47.66;101607.66;5026328;28;20472;-69
2021/03/04 07:36:28;;;;;;;0.20;0.00;;;;;;;21.36;47.73;101608.50;5024429;28;20025;-69
2021/03/04 07:39:03;;;;;;;0.20;0.00;;;;;;;21.38;47.55;101619.28;5023819;28;20028;-69
2021/03/04 07:41:42;;;;;;;0.20;0.00;;;;;;;21.37;47.66;101628.50;5026940;28;20064;-68
2021/03/04 07:44:09;;;;;;;0.10;0.08;;;;;;;21.35;47.79;101614.16;5027164;28;20147;-68
2021/03/04 07:46:51;;;;;;;0.00;0.00;;;;;;;21.34;47.70;101628.88;5024167;28;20025;-69
2021/03/04 07:49:16;;;;;;;0.08;0.05;;;;;;;21.36;48.22;101626.81;5023605;28;20029;-69
2021/03/04 07:51:47;;;;;;;0.00;0.00;;;;;;;21.36;48.14;101621.34;5024097;28;20025;-69
2021/03/04 07:54:26;;;;;;;0.10;0.08;;;;;;;21.40;48.22;101612.59;5019897;28;20103;-70
2021/03/04 07:57:05;;;;;;;0.65;0.10;;;;;;;21.40;47.98;101623.53;5018680;28;20066;-69
2021/03/04 07:59:30;;;;;;;0.00;0.00;;;;;;;21.40;48.07;101617.22;5022023;28;20029;-70
2021/03/04 08:02:00;;;;;;;0.00;0.00;;;;;;;21.37;48.25;101610.22;5022680;28;20494;-69
2021/03/04 08:04:27;;;;;;;0.38;0.10;;;;;;;21.40;47.45;101617.22;5024988;28;20033;-69
2021/03/04 08:06:54;;;;;;;0.00;0.00;;;;;;;21.38;46.79;101616.53;5025656;28;20025;-69
2021/03/04 08:09:46;;;;;;;0.00;0.00;;;;;;;21.43;47.82;101622.34;5020424;28;20025;-68
2021/03/04 08:12:13;;;;;;;0.10;0.00;;;;;;;21.47;47.62;101615.47;5018359;28;20068;-69
2021/03/04 08:14:41;;;;;;;0.30;0.00;;;;;;;21.55;47.64;101621.81;5022366;28;20021;-69
2021/03/04 08:17:07;;;;;;;0.10;0.10;;;;;;;21.56;48.18;101618.06;5019962;28;20440;-70
2021/03/04 08:19:34;;;;;;;0.25;0.10;;;;;;;21.65;49.09;101621.59;5026753;28;20115;-69
2021/03/04 08:22:05;;;;;;;0.00;0.00;;;;;;;21.67;48.40;101627.78;5020408;28;20037;-69
2021/03/04 08:24:32;;;;;;;0.98;0.00;;;;;;;21.63;48.42;101619.03;5029458;28;20067;-70
2021/03/04 08:26:59;;;;;;;0.00;0.00;;;;;;;21.53;49.79;101628.50;5029669;28;20384;-70
2021/03/04 08:29:25;;;;;;;0.10;0.00;;;;;;;21.55;49.99;101620.97;5029932;28;20412;-69
2021/03/04 08:31:53;;;;;;;0.45;0.20;;;;;;;21.48;51.12;101629.00;5028341;28;20042;-71
2021/03/04 08:34:19;;;;;;;0.10;0.00;;;;;;;21.44;50.16;101635.84;5029576;28;20033;-69
2021/03/04 08:36:46;;;;;;;0.05;0.00;;;;;;;21.40;50.36;101619.97;5024263;28;20500;-69
2021/03/04 08:39:11;;;;;;;0.10;0.00;;;;;;;21.35;49.37;101622.38;5030687;28;20060;-70
2021/03/04 08:41:38;;;;;;;0.00;0.00;;;;;;;21.37;49.31;101639.44;5034772;28;20077;-70
2021/03/04 08:44:14;;;;;;;0.15;0.10;;;;;;;21.34;49.54;101637.06;5032652;28;20091;-68
2021/03/04 08:46:47;;;;;;;0.00;0.00;;;;;;;21.28;49.22;101641.31;5025072;28;20072;-68
2021/03/04 08:49:20;;;;;;;0.00;0.00;;;;;;;21.26;48.77;101643.38;5021936;28;20477;-67
2021/03/04 08:51:46;;;;;;;0.03;0.00;;;;;;;21.19;48.43;101628.66;5015554;28;20050;-67
2021/03/04 08:54:23;;;;;;;0.05;0.00;;;;;;;21.25;48.12;101630.72;5014542;28;20029;-69
2021/03/04 08:56:58;;;;;;;0.03;0.03;;;;;;;21.27;47.86;101628.69;5014459;28;20061;-67
2021/03/04 08:59:26;;;;;;;0.00;0.00;;;;;;;21.27;47.82;101645.09;5016593;28;20474;-68
2021/03/04 09:01:52;;;;;;;0.00;0.00;;;;;;;21.24;47.89;101629.88;5013951;28;20041;-68
2021/03/04 09:04:24;;;;;;;0.20;0.17;;;;;;;21.28;47.81;101633.97;5030750;28;20447;-66
2021/03/04 09:06:49;;;;;;;0.10;0.10;;;;;;;21.28;47.84;101650.38;5032884;28;20097;-68
2021/03/04 09:09:24;;;;;;;0.10;0.00;;;;;;;21.30;47.44;101656.53;5031680;28;20211;-68
2021/03/04 09:11:50;;;;;;;0.60;0.10;;;;;;;21.28;47.54;101653.13;5032570;28;20481;-67
2021/03/04 09:14:16;;;;;;;0.57;0.10;;;;;;;21.31;47.30;101650.03;5022377;28;20022;-68
2021/03/04 09:16:48;;;;;;;0.20;0.00;;;;;;;21.31;47.19;101646.44;5025184;28;20036;-68
2021/03/04 09:19:26;;;;;;;0.10;0.00;;;;;;;21.32;47.72;101648.16;5021390;28;20030;-70
2021/03/04 09:21:52;;;;;;;0.00;0.00;;;;;;;21.29;47.20;101637.56;5023921;28;20100;-69
2021/03/04 09:24:18;;;;;;;0.20;0.10;;;;;;;21.30;47.17;101639.25;5019991;28;20025;-68
2021/03/04 09:26:43;;;;;;;0.15;0.10;;;;;;;21.35;47.43;101645.09;5020822;28;20021;-66
2021/03/04 09:29:09;;;;;;;0.00;0.00;;;;;;;21.33;47.51;101649.84;5022271;28;20034;-68
2021/03/04 09:31:35;;;;;;;0.08;0.00;;;;;;;21.30;47.78;101645.59;5021301;28;20069;-69
2021/03/04 09:34:02;;;;;;;0.15;0.10;;;;;;;21.26;47.11;101644.22;5022237;28;20425;-69
2021/03/04 09:36:28;;;;;;;0.00;0.00;;;;;;;21.27;47.58;101632.25;5020887;28;20108;-69
2021/03/04 09:38:55;;;;;;;0.00;0.00;;;;;;;21.24;47.45;101624.41;5016143;28;20149;-66
2021/03/04 09:41:22;;;;;;;0.00;0.00;;;;;;;21.34;47.01;101631.59;5023606;28;20033;-67
2021/03/04 09:43:50;;;;;;;0.15;0.00;;;;;;;21.22;48.49;101623.69;5022173;28;20029;-67
2021/03/04 09:46:31;;;;;;;0.05;0.00;;;;;;;21.27;47.95;101615.84;5012133;28;20376;-68
2021/03/04 09:49:10;;;;;;;0.10;0.05;;;;;;;21.34;48.16;101634.34;5012927;28;20050;-68
2021/03/04 09:51:38;;;;;;;0.05;0.00;;;;;;;21.36;47.67;101641.34;5013073;28;20068;-67
2021/03/04 09:54:04;;;;;;;0.20;0.00;;;;;;;21.34;47.80;101628.88;5012767;28;20030;-68
2021/03/04 09:56:30;;;;;;;0.10;0.00;;;;;;;21.34;47.77;101643.38;5011208;28;20397;-68
2021/03/04 09:58:56;;;;;;;0.10;0.00;;;;;;;21.31;48.20;101617.22;5017624;28;20026;-68
2021/03/04 10:01:36;;;;;;;0.20;0.05;;;;;;;21.39;47.89;101631.94;5017495;28;20045;-68
2021/03/04 10:04:04;;;;;;;0.52;0.03;;;;;;;21.46;47.68;101638.41;5031969;28;20017;-68
2021/03/04 10:06:37;;;;;;;0.00;0.00;;;;;;;21.48;48.02;101642.66;5032495;28;20029;-67
2021/03/04 10:09:07;;;;;;;0.00;0.00;;;;;;;21.46;47.60;101632.94;5033406;28;20025;-68
2021/03/04 10:11:37;;;;;;;0.10;0.10;;;;;;;21.48;47.55;101641.81;5032114;28;20529;-69
2021/03/04 10:14:12;;;;;;;0.75;0.35;;;;;;;21.48;47.96;101647.28;5032896;28;20037;-68
2021/03/04 10:16:39;;;;;;;0.10;0.00;;;;;;;21.46;48.06;101638.41;5032477;28;20057;-68
2021/03/04 10:19:05;;;;;;;0.00;0.00;;;;;;;21.46;47.42;101630.19;5033381;28;20079;-68
2021/03/04 10:21:31;;;;;;;0.05;0.00;;;;;;;21.45;47.28;101631.22;5033926;28;20029;-67
2021/03/04 10:23:56;;;;;;;0.00;0.00;;;;;;;21.41;47.25;101636.19;5032851;28;20021;-69
2021/03/04 10:26:22;;;;;;;0.08;0.00;;;;;;;21.46;47.49;101635.66;5033134;28;20043;-68
2021/03/04 10:28:47;;;;;;;0.10;0.10;;;;;;;21.48;47.35;101641.81;5033262;28;20076;-68
2021/03/04 10:31:12;;;;;;;0.63;0.10;;;;;;;21.45;47.64;101647.63;5033171;28;20461;-68
2021/03/04 10:33:37;;;;;;;0.38;0.10;;;;;;;21.48;48.09;101647.28;5032909;28;20203;-67
2021/03/04 10:36:03;;;;;;;0.20;0.10;;;;;;;21.50;48.55;101656.16;5032887;28;20472;-68
2021/03/04 10:38:28;;;;;;;0.03;0.00;;;;;;;21.54;48.67;101654.81;5032862;28;20025;-68
2021/03/04 10:40:54;;;;;;;0.10;0.00;;;;;;;21.59;48.64;101655.16;5032921;28;20021;-68
2021/03/04 10:43:19;;;;;;;0.20;0.10;;;;;;;21.60;48.66;101651.38;5032826;28;20083;-68
2021/03/04 10:45:45;;;;;;;0.10;0.00;;;;;;;21.65;48.35;101648.13;5032270;28;20037;-68
2021/03/04 10:48:11;;;;;;;0.73;0.22;;;;;;;21.68;48.64;101645.06;5032737;28;20448;-68
2021/03/04 10:50:36;;;;;;;0.85;0.13;;;;;;;21.69;48.51;101644.88;5031790;28;20021;-68
2021/03/04 10:53:01;;;;;;;1.73;0.22;;;;;;;21.73;48.39;101643.50;5032814;28;20029;-69
2021/03/04 10:55:28;;;;;;;0.68;0.10;;;;;;;21.74;48.53;101637.00;5032704;28;20542;-67
2021/03/04 10:57:53;;;;;;;2.00;0.00;;;;;;;21.73;48.75;101640.75;5032468;28;20040;-68
2021/03/04 11:00:19;;;;;;;0.20;0.10;;;;;;;21.59;49.53;101628.63;5031256;28;20376;-68
2021/03/04 11:02:44;;;;;;;0.35;0.08;;;;;;;21.56;49.88;101631.72;5031912;28;20021;-67
2021/03/04 11:05:10;;;;;;;0.68;0.20;;;;;;;21.49;50.34;101633.44;5032417;28;20385;-67
2021/03/04 11:07:35;;;;;;;0.52;0.00;;;;;;;21.49;49.87;101643.53;5032638;28;20029;-68
2021/03/04 11:10:02;;;;;;;0.50;0.10;;;;;;;21.50;48.92;101645.22;5031740;28;20376;-67
2021/03/04 11:12:28;;;;;;;1.02;0.03;;;;;;;21.44;48.73;101640.47;5019635;28;20049;-68
2021/03/04 11:14:53;;;;;;;0.20;0.10;;;;;;;21.44;48.05;101644.03;5016324;28;20021;-68
2021/03/04 11:17:18;;;;;;;0.20;0.00;;;;;;;21.40;47.87;101631.75;5014642;28;20026;-67
2021/03/04 11:19:44;;;;;;;1.77;0.10;;;;;;;21.32;47.99;101635.31;5012391;28;20028;-67
2021/03/04 11:22:09;;;;;;;0.22;0.08;;;;;;;21.32;48.22;101642.69;5012262;28;20466;-68
2021/03/04 11:24:35;;;;;;;0.57;0.08;;;;;;;21.30;47.41;101623.72;5028825;28;20037;-66
2021/03/04 11:27:01;;;;;;;0.35;0.00;;;;;;;21.29;47.17;101632.94;5031971;28;20037;-68